createdAt,value
2019-01-21T00:02:33.567Z,77.80
2019-01-21T00:07:39.584Z,77.83
2019-01-21T00:12:45.737Z,77.73
2019-01-21T00:17:51.714Z,77.98
2019-01-21T00:22:57.494Z,78.17
2019-01-21T00:28:03.557Z,78.06
2019-01-21T00:33:09.315Z,78.02
2019-01-21T00:38:15.233Z,77.79
2019-01-21T00:43:21.070Z,77.67
2019-01-21T00:48:27.467Z,77.40
2019-01-21T00:53:33.522Z,77.07
2019-01-21T00:58:39.494Z,77.04
2019-01-21T01:03:45.713Z,76.79
2019-01-21T01:08:51.949Z,76.17
2019-01-21T01:13:58.030Z,76.07
2019-01-21T01:19:04.030Z,75.92
2019-01-21T01:24:09.969Z,75.78
2019-01-21T01:29:15.949Z,75.73
2019-01-21T01:34:21.698Z,75.42
2019-01-21T01:39:27.585Z,75.20
2019-01-21T01:44:33.676Z,75.28
2019-01-21T01:49:39.640Z,75.85
2019-01-21T01:54:45.932Z,75.62
2019-01-21T01:59:52.092Z,75.79
2019-01-21T02:04:57.772Z,75.82
2019-01-21T02:10:04.782Z,75.97
2019-01-21T02:15:12.469Z,76.09
2019-01-21T02:20:19.266Z,75.98
2019-01-21T02:25:43.354Z,75.94
2019-01-21T02:31:01.415Z,76.13
2019-01-21T02:36:18.961Z,75.84
2019-01-21T02:41:29.466Z,75.76
2019-01-21T02:46:45.123Z,76.09
2019-01-21T02:52:09.132Z,75.75
2019-01-21T02:57:18.703Z,75.49
2019-01-21T03:02:35.860Z,75.65
2019-01-21T03:08:00.159Z,75.43
2019-01-21T03:13:25.969Z,75.46
2019-01-21T03:18:50.111Z,75.22
2019-01-21T03:24:14.220Z,75.42
2019-01-21T03:29:32.074Z,75.53
2019-01-21T03:34:53.113Z,75.56
2019-01-21T03:40:08.130Z,75.88
2019-01-21T03:45:32.248Z,75.93
2019-01-21T03:50:57.451Z,76.36
2019-01-21T03:56:06.012Z,76.27
2019-01-21T04:01:24.044Z,76.57
2019-01-21T04:06:36.163Z,76.62
2019-01-21T04:11:47.873Z,76.86
2019-01-21T04:17:03.671Z,77.00
2019-01-21T04:22:14.719Z,77.21
2019-01-21T04:27:27.337Z,77.36
2019-01-21T04:32:48.341Z,77.04
2019-01-21T04:38:03.225Z,77.00
2019-01-21T04:43:12.289Z,77.12
2019-01-21T04:48:37.368Z,77.44
2019-01-21T04:54:02.794Z,77.51
2019-01-21T04:59:15.213Z,77.44
2019-01-21T05:04:24.468Z,77.40
2019-01-21T05:10:11.919Z,77.21
2019-01-21T05:15:56.084Z,77.05
2019-01-21T05:21:20.275Z,77.06
2019-01-21T05:27:02.734Z,77.22
2019-01-21T05:32:21.098Z,77.26
2019-01-21T05:37:43.640Z,76.82
2019-01-21T05:43:03.677Z,76.72
2019-01-21T05:48:24.601Z,76.36
2019-01-21T05:53:45.838Z,76.63
2019-01-21T05:58:55.048Z,76.86
2019-01-21T06:04:29.568Z,76.69
2019-01-21T06:09:41.707Z,76.39
2019-01-21T06:15:22.513Z,76.03
2019-01-21T06:20:42.657Z,76.21
2019-01-21T06:26:30.477Z,76.46
2019-01-21T06:31:44.971Z,76.77
2019-01-21T06:37:18.244Z,76.51
2019-01-21T06:42:30.051Z,76.37
2019-01-21T06:47:57.096Z,76.25
2019-01-21T06:53:18.243Z,75.85
2019-01-21T06:58:30.253Z,75.51
2019-01-21T07:03:56.104Z,75.20
2019-01-21T07:09:14.648Z,74.98
2019-01-21T07:14:44.225Z,74.75
2019-01-21T07:20:02.158Z,74.80
2019-01-21T07:25:20.610Z,74.95
2019-01-21T07:30:59.986Z,74.89
2019-01-21T07:36:33.789Z,74.86
2019-01-21T07:41:52.098Z,74.78
2019-01-21T07:47:15.250Z,74.96
2019-01-21T07:53:04.128Z,75.07
2019-01-21T07:58:31.708Z,75.11
2019-01-21T08:04:00.424Z,75.17
2019-01-21T08:09:15.305Z,74.80
2019-01-21T08:14:40.798Z,74.36
2019-01-21T08:20:03.801Z,73.87
2019-01-21T08:25:23.798Z,73.79
2019-01-21T08:30:41.982Z,73.62
2019-01-21T08:36:10.648Z,73.29
2019-01-21T08:41:28.510Z,72.94
2019-01-21T08:46:52.814Z,73.05
2019-01-21T08:52:13.792Z,72.84
2019-01-21T08:57:41.407Z,72.90
2019-01-21T09:02:54.926Z,72.62
2019-01-21T09:08:25.676Z,72.50
2019-01-21T09:13:38.099Z,73.01
2019-01-21T09:18:53.245Z,72.19
2019-01-21T09:24:34.528Z,71.93
2019-01-21T09:30:06.064Z,71.78
2019-01-21T09:35:36.579Z,71.04
2019-01-21T09:41:18.868Z,70.84
2019-01-21T09:46:28.021Z,69.96
2019-01-21T09:51:33.863Z,70.57
2019-01-21T09:56:41.455Z,69.81
2019-01-21T10:01:47.604Z,70.21
2019-01-21T10:06:56.643Z,69.30
2019-01-21T10:12:28.101Z,69.78
2019-01-21T10:17:52.192Z,69.85
2019-01-21T10:23:17.593Z,68.98
2019-01-21T10:28:35.461Z,68.63
2019-01-21T10:33:59.467Z,68.10
2019-01-21T10:39:37.825Z,68.68
2019-01-21T10:44:53.272Z,66.80
2019-01-21T10:50:14.309Z,68.12
2019-01-21T10:55:44.448Z,67.16
2019-01-21T11:01:08.967Z,67.98
2019-01-21T11:06:32.169Z,67.19
2019-01-21T11:11:57.881Z,67.08
2019-01-21T11:17:29.576Z,67.21
2019-01-21T11:22:49.372Z,67.50
2019-01-21T11:28:01.553Z,67.01
2019-01-21T11:33:34.030Z,66.63
2019-01-21T11:38:50.854Z,67.23
2019-01-21T11:44:24.480Z,66.79
2019-01-21T11:49:42.879Z,66.66
2019-01-21T11:54:57.826Z,66.56
2019-01-21T12:00:16.015Z,66.34
2019-01-21T12:05:34.694Z,66.38
2019-01-21T12:11:06.523Z,66.36
2019-01-21T12:16:44.495Z,66.59
2019-01-21T12:22:27.027Z,66.41
2019-01-21T12:27:44.986Z,66.44
2019-01-21T12:33:09.262Z,65.74
2019-01-21T12:38:41.684Z,64.88
2019-01-21T12:44:02.928Z,65.28
2019-01-21T12:49:23.744Z,65.67
2019-01-21T12:54:40.728Z,65.64
2019-01-21T12:59:55.869Z,65.71
2019-01-21T13:05:07.769Z,65.15
2019-01-21T13:10:29.009Z,64.54
2019-01-21T13:15:59.145Z,64.45
2019-01-21T13:21:43.334Z,64.77
2019-01-21T13:27:07.616Z,65.04
2019-01-21T13:32:22.408Z,65.07
2019-01-21T13:37:46.893Z,65.32
2019-01-21T13:43:02.858Z,64.47
2019-01-21T13:48:17.023Z,64.95
2019-01-21T13:53:38.391Z,65.40
2019-01-21T13:59:13.346Z,65.60
2019-01-21T14:04:40.828Z,65.94
2019-01-21T14:09:58.731Z,66.38
2019-01-21T14:15:27.461Z,66.60
2019-01-21T14:20:45.610Z,66.10
2019-01-21T14:26:08.341Z,66.75
2019-01-21T14:31:19.643Z,66.56
2019-01-21T14:36:32.666Z,66.57
2019-01-21T14:42:18.431Z,67.04
2019-01-21T14:47:52.887Z,67.02
2019-01-21T14:53:19.872Z,66.97
2019-01-21T14:58:45.319Z,67.57
2019-01-21T15:04:16.569Z,67.21
2019-01-21T15:09:44.973Z,67.77
2019-01-21T15:15:12.143Z,67.56
2019-01-21T15:20:21.223Z,68.37
2019-01-21T15:25:30.271Z,68.61
2019-01-21T15:30:45.174Z,68.41
2019-01-21T15:36:11.262Z,68.20
2019-01-21T15:41:29.530Z,68.45
2019-01-21T15:46:53.500Z,68.63
2019-01-21T15:52:11.407Z,68.65
2019-01-21T15:57:21.643Z,69.08
2019-01-21T16:02:36.454Z,68.68
2019-01-21T16:07:47.341Z,68.81
2019-01-21T16:13:05.209Z,68.91
2019-01-21T16:18:17.191Z,69.03
2019-01-21T16:23:41.041Z,69.10
2019-01-21T16:28:53.151Z,69.17
2019-01-21T16:34:12.303Z,69.98
2019-01-21T16:39:27.427Z,70.43
2019-01-21T16:44:33.309Z,70.09
2019-01-21T16:49:39.286Z,70.14
2019-01-21T16:54:45.484Z,70.31
2019-01-21T16:59:51.515Z,70.51
2019-01-21T17:04:57.548Z,70.94
2019-01-21T17:10:03.828Z,70.88
2019-01-21T17:15:11.983Z,70.91
2019-01-21T17:20:21.341Z,70.84
2019-01-21T17:25:27.047Z,71.23
2019-01-21T17:30:32.908Z,70.92
2019-01-21T17:35:39.013Z,71.23
2019-01-21T17:40:45.286Z,71.42
2019-01-21T17:45:51.260Z,71.28
2019-01-21T17:50:57.554Z,71.65
2019-01-21T17:56:03.701Z,71.77
2019-01-21T18:01:09.671Z,71.51
2019-01-21T18:06:15.876Z,71.96
2019-01-21T18:11:22.319Z,71.74
2019-01-21T18:16:28.384Z,71.82
2019-01-21T18:21:39.942Z,71.54
2019-01-21T18:26:41.994Z,71.74
2019-01-21T18:31:47.863Z,71.52
2019-01-21T18:36:53.913Z,71.55
2019-01-21T18:42:00.156Z,71.44
2019-01-21T18:47:06.262Z,71.22
2019-01-21T18:52:12.269Z,71.25
2019-01-21T18:57:18.346Z,70.92
2019-01-21T19:02:24.225Z,71.18
2019-01-21T19:07:30.080Z,71.09
2019-01-21T19:12:36.377Z,71.12
2019-01-21T19:17:42.366Z,70.79
2019-01-21T19:22:48.337Z,70.91
2019-01-21T19:27:54.273Z,70.76
2019-01-21T19:33:00.505Z,71.17
2019-01-21T19:38:06.560Z,70.81
2019-01-21T19:43:12.949Z,70.92
2019-01-21T19:48:19.105Z,71.05
2019-01-21T19:53:26.051Z,70.68
2019-01-21T19:58:32.065Z,70.76
2019-01-21T20:03:38.137Z,70.67
2019-01-21T20:08:44.210Z,70.63
2019-01-21T20:13:51.648Z,70.12
2019-01-21T20:18:57.782Z,70.13
2019-01-21T20:24:05.825Z,69.67
2019-01-21T20:29:11.803Z,69.45
2019-01-21T20:34:17.774Z,69.62
2019-01-21T20:39:23.671Z,69.51
2019-01-21T20:44:29.714Z,69.13
2019-01-21T20:49:35.503Z,69.13
2019-01-21T20:54:41.445Z,69.36
2019-01-21T20:59:47.424Z,69.40
2019-01-21T21:04:53.530Z,69.49
2019-01-21T21:09:59.495Z,68.97
2019-01-21T21:15:22.229Z,69.09
2019-01-21T21:20:28.321Z,69.17
2019-01-21T21:25:34.456Z,69.04
2019-01-21T21:30:40.344Z,68.97
2019-01-21T21:35:46.960Z,68.82
2019-01-21T21:40:54.008Z,68.48
2019-01-21T21:46:01.863Z,68.17
2019-01-21T21:51:08.276Z,68.19
2019-01-21T21:56:14.552Z,68.21
2019-01-21T22:01:24.075Z,68.36
2019-01-21T22:06:28.077Z,68.62
2019-01-21T22:11:34.066Z,69.37
2019-01-21T22:16:40.115Z,70.39
2019-01-21T22:21:46.141Z,70.43
2019-01-21T22:26:51.926Z,70.20
2019-01-21T22:31:57.687Z,70.08
2019-01-21T22:37:03.619Z,70.13
2019-01-21T22:42:09.539Z,70.34
2019-01-21T22:47:15.389Z,69.79
2019-01-21T22:52:21.292Z,69.77
2019-01-21T22:57:27.570Z,69.60
2019-01-21T23:02:34.161Z,69.71
2019-01-21T23:07:40.225Z,69.60
2019-01-21T23:12:46.189Z,69.64
2019-01-21T23:17:52.078Z,69.16
2019-01-21T23:22:58.014Z,68.97
2019-01-21T23:28:05.331Z,68.84
2019-01-21T23:33:11.188Z,68.86
2019-01-21T23:38:17.184Z,69.60
2019-01-21T23:43:23.102Z,68.75
2019-01-21T23:48:29.653Z,68.73
2019-01-21T23:53:35.830Z,69.28
2019-01-21T23:58:42.093Z,69.78
